Time,TemperatureF,DewpointF,PressureIn,WindDirection,WindDirectionDegrees,WindSpeedMPH,WindSpeedGustMPH,Humidity,HourlyPrecipIn,Conditions,Clouds,dailyrainin,SoftwareType,DateUTC
2013-06-04 00:00:00,53.1,51.1,30.02,North,351,0.0,0.0,93,0.00,,---,0.01,VWS V14.01,2013-06-04 04:00:00,
2013-06-04 00:01:00,53.0,51.0,30.02,North,351,0.0,0.0,93,0.00,,---,0.00,VWS V14.01,2013-06-04 04:01:00,
2013-06-04 00:02:00,53.0,51.0,30.02,North,351,0.0,0.0,93,0.00,,---,0.00,VWS V14.01,2013-06-04 04:02:00,
2013-06-04 06:35:00,41.5,40.2,30.10,South,171,0.0,0.0,95,0.00,,---,0.00,VWS V14.01,2013-06-04 10:35:00,
2013-06-04 06:40:00,41.8,40.5,30.10,South,171,0.0,0.0,95,0.00,,---,0.00,VWS V14.01,2013-06-04 10:40:00,
2013-06-04 06:45:00,42.0,40.7,30.10,South,171,0.0,0.0,95,0.00,,---,0.00,VWS V14.01,2013-06-04 10:45:00,
2013-06-04 06:50:00,42.0,40.7,30.10,South,171,0.0,0.0,95,0.00,,---,0.00,VWS V14.01,2013-06-04 10:50:00,
2013-06-04 06:55:00,42.3,41.0,30.10,South,171,0.0,0.0,95,0.00,,---,0.00,VWS V14.01,2013-06-04 10:55:00,
2013-06-04 07:00:00,42.7,41.6,30.10,South,171,0.0,0.0,96,0.00,,---,0.00,VWS V14.01,2013-06-04 11:00:00,
2013-06-04 07:05:00,42.9,41.6,30.11,South,171,0.0,0.0,95,0.00,,---,0.00,VWS V14.01,2013-06-04 11:05:00,
2013-06-04 07:10:00,43.3,42.0,30.11,South,171,0.0,0.0,95,0.00,,---,0.00,VWS V14.01,2013-06-04 11:10:00,
2013-06-04 07:15:00,43.6,42.3,30.11,South,171,0.0,0.0,95,0.00,,---,0.00,VWS V14.01,2013-06-04 11:15:00,
2013-06-04 07:20:00,44.0,42.7,30.11,South,171,0.0,0.0,95,0.00,,---,0.00,VWS V14.01,2013-06-04 11:20:00,
2013-06-04 07:25:00,44.3,42.7,30.11,South,171,0.0,0.0,94,0.00,,---,0.00,VWS V14.01,2013-06-04 11:25:00,
2013-06-04 07:30:00,44.6,43.0,30.11,South,171,0.0,0.0,94,0.00,,---,0.00,VWS V14.01,2013-06-04 11:30:00,
2013-06-04 07:35:00,45.1,43.2,30.11,South,171,0.0,0.0,93,0.00,,---,0.00,VWS V14.01,2013-06-04 11:35:00,
2013-06-04 07:40:00,45.7,43.8,30.11,South,171,0.0,0.0,93,0.00,,---,0.00,VWS V14.01,2013-06-04 11:40:00,
2013-06-04 07:46:00,46.2,44.0,30.11,South,171,0.0,0.0,92,0.00,,---,0.00,VWS V14.01,2013-06-04 11:46:00,
2013-06-04 07:50:00,46.6,44.1,30.11,SSE,155,0.0,0.0,91,0.00,,---,0.00,VWS V14.01,2013-06-04 11:50:00,
2013-06-04 07:51:00,46.8,44.0,30.11,SSE,155,0.0,0.0,90,0.00,,---,0.00,VWS V14.01,2013-06-04 11:51:00,
2013-06-04 07:56:00,47.4,44.6,30.12,SSE,156,0.0,0.0,90,0.00,,---,0.00,VWS V14.01,2013-06-04 11:56:00,
2013-06-04 08:00:00,47.9,44.8,30.12,SSE,156,0.0,0.0,89,0.00,,---,0.00,VWS V14.01,2013-06-04 12:00:00,
2013-06-04 08:05:00,48.3,44.9,30.12,SSE,156,0.0,0.0,88,0.00,,---,0.00,VWS V14.01,2013-06-04 12:05:00,
2013-06-04 08:10:00,48.7,45.3,30.12,SSE,156,0.0,0.0,88,0.00,,---,0.00,VWS V14.01,2013-06-04 12:10:00,
2013-06-04 08:11:00,49.0,45.6,30.12,SSE,156,0.0,0.0,88,0.00,,---,0.00,VWS V14.01,2013-06-04 12:11:00,
2013-06-04 08:16:00,49.7,45.7,30.12,SW,222,0.0,0.0,86,0.00,,---,0.00,VWS V14.01,2013-06-04 12:16:00,
2013-06-04 08:20:00,50.0,45.7,30.12,SE,140,0.0,0.0,85,0.00,,---,0.00,VWS V14.01,2013-06-04 12:20:00,
2013-06-04 08:21:00,50.1,45.5,30.12,SE,130,0.0,0.0,84,0.00,,---,0.00,VWS V14.01,2013-06-04 12:21:00,
2013-06-04 08:26:00,50.5,45.5,30.13,SE,132,0.0,0.0,83,0.00,,---,0.00,VWS V14.01,2013-06-04 12:26:00,
2013-06-04 08:30:00,50.9,45.9,30.13,SE,134,0.0,0.0,83,0.00,,---,0.00,VWS V14.01,2013-06-04 12:30:00,
2013-06-04 08:31:00,51.0,46.0,30.13,SW,217,0.0,0.0,83,0.00,,---,0.00,VWS V14.01,2013-06-04 12:31:00,
2013-06-04 08:36:00,51.7,46.1,30.13,SSW,192,0.0,0.0,81,0.00,,---,0.00,VWS V14.01,2013-06-04 12:36:00,
2013-06-04 08:40:00,52.2,46.2,30.13,SE,138,0.0,0.0,80,0.00,,---,0.00,VWS V14.01,2013-06-04 12:40:00,
2013-06-04 08:41:00,52.5,46.2,30.13,SE,139,0.0,0.0,79,0.00,,---,0.00,VWS V14.01,2013-06-04 12:41:00,
2013-06-04 08:46:00,53.4,46.0,30.13,SSE,152,0.0,0.0,76,0.00,,---,0.00,VWS V14.01,2013-06-04 12:46:00,
2013-06-04 08:50:00,53.9,46.5,30.13,ESE,103,0.0,0.0,76,0.00,,---,0.00,VWS V14.01,2013-06-04 12:50:00,
2013-06-04 08:51:00,54.1,45.7,30.13,ESE,117,0.0,0.0,73,0.00,,---,0.00,VWS V14.01,2013-06-04 12:51:00,
2013-06-04 08:56:00,54.7,46.6,30.13,South,188,0.0,0.0,74,0.00,,---,0.00,VWS V14.01,2013-06-04 12:56:00,
2013-06-04 09:00:00,55.5,47.4,30.13,South,188,0.0,0.0,74,0.00,,---,0.00,VWS V14.01,2013-06-04 13:00:00,
2013-06-04 09:01:00,55.9,47.4,30.13,SSW,205,0.0,0.0,73,0.00,,---,0.00,VWS V14.01,2013-06-04 13:01:00,
2013-06-04 09:06:00,57.0,47.3,30.13,SW,233,0.0,0.0,70,0.00,,---,0.00,VWS V14.01,2013-06-04 13:06:00,
2013-06-04 09:10:00,56.9,47.2,30.13,NNE,26,1.0,1.0,70,0.00,,---,0.00,VWS V14.01,2013-06-04 13:10:00,
2013-06-04 09:11:00,56.7,47.4,30.14,ENE,78,0.0,1.0,71,0.00,,---,0.00,VWS V14.01,2013-06-04 13:11:00,
2013-06-04 09:16:00,57.4,48.5,30.14,WSW,248,0.0,1.0,72,0.00,,---,0.00,VWS V14.01,2013-06-04 13:16:00,
2013-06-04 09:20:00,57.7,47.6,30.14,NE,35,0.0,2.0,69,0.00,,---,0.00,VWS V14.01,2013-06-04 13:20:00,
2013-06-04 09:21:00,57.7,47.2,30.14,ESE,110,0.0,2.0,68,0.00,,---,0.00,VWS V14.01,2013-06-04 13:21:00,
2013-06-04 09:26:00,57.8,46.1,30.14,NNE,33,0.0,2.0,65,0.00,,---,0.00,VWS V14.01,2013-06-04 13:26:00,
2013-06-04 09:30:00,57.8,45.7,30.14,NNE,17,0.0,2.0,64,0.00,,---,0.00,VWS V14.01,2013-06-04 13:30:00,
2013-06-04 09:31:00,58.0,46.3,30.14,North,5,0.0,0.0,65,0.00,,---,0.00,VWS V14.01,2013-06-04 13:31:00,
2013-06-04 09:36:00,58.6,44.8,30.14,NE,47,0.0,2.0,60,0.00,,---,0.00,VWS V14.01,2013-06-04 13:36:00,
2013-06-04 09:40:00,58.9,45.1,30.14,NNE,31,0.0,4.0,60,0.00,,---,0.00,VWS V14.01,2013-06-04 13:40:00,
2013-06-04 09:41:00,59.1,45.2,30.15,ESE,119,0.0,1.0,60,0.00,,---,0.00,VWS V14.01,2013-06-04 13:41:00,
2013-06-04 09:46:00,59.6,44.4,30.15,WNW,291,0.0,2.0,57,0.00,,---,0.00,VWS V14.01,2013-06-04 13:46:00,
2013-06-04 09:50:00,59.9,45.5,30.15,ESE,108,0.0,2.0,59,0.00,,---,0.00,VWS V14.01,2013-06-04 13:50:00,
2013-06-04 09:51:00,60.0,44.7,30.15,NE,51,0.0,2.0,57,0.00,,---,0.00,VWS V14.01,2013-06-04 13:51:00,
2013-06-04 09:56:00,60.1,44.8,30.15,NNW,331,0.0,3.0,57,0.00,,---,0.00,VWS V14.01,2013-06-04 13:56:00,
2013-06-04 10:00:00,60.3,46.4,30.15,NNW,340,0.0,3.0,60,0.00,,---,0.00,VWS V14.01,2013-06-04 14:00:00,
2013-06-04 10:01:00,60.3,45.5,30.15,WNW,286,0.0,7.0,58,0.00,,---,0.00,VWS V14.01,2013-06-04 14:01:00,
2013-06-04 10:06:00,60.8,46.4,30.15,NE,43,2.0,7.0,59,0.00,,---,0.00,VWS V14.01,2013-06-04 14:06:00,
2013-06-04 10:10:00,60.8,45.0,30.15,NNE,17,3.0,10.0,56,0.00,,---,0.00,VWS V14.01,2013-06-04 14:10:00,
2013-06-04 10:11:00,60.5,44.3,30.15,WSW,254,0.0,5.0,55,0.00,,---,0.00,VWS V14.01,2013-06-04 14:11:00,
2013-06-04 10:17:00,61.3,46.4,30.15,NW,315,0.0,5.0,58,0.00,,---,0.00,VWS V14.01,2013-06-04 14:17:00,
2013-06-04 10:20:00,61.6,46.7,30.14,NE,36,1.0,5.0,58,0.00,,---,0.00,VWS V14.01,2013-06-04 14:20:00,
2013-06-04 10:22:00,61.7,46.3,30.15,ESE,116,0.0,2.0,57,0.00,,---,0.00,VWS V14.01,2013-06-04 14:22:00,
2013-06-04 10:27:00,61.6,45.8,30.14,NNE,19,0.0,4.0,56,0.00,,---,0.00,VWS V14.01,2013-06-04 14:27:00,
2013-06-04 10:30:00,61.6,44.8,30.15,NNE,22,3.0,5.0,54,0.00,,---,0.00,VWS V14.01,2013-06-04 14:30:00,
2013-06-04 10:32:00,61.4,44.6,30.15,NNE,33,0.0,4.0,54,0.00,,---,0.00,VWS V14.01,2013-06-04 14:32:00,
2013-06-04 10:37:00,62.1,45.8,30.14,North,5,1.0,6.0,55,0.00,,---,0.00,VWS V14.01,2013-06-04 14:37:00,
2013-06-04 10:40:00,62.2,45.8,30.14,NE,47,1.0,8.0,55,0.00,,---,0.00,VWS V14.01,2013-06-04 14:40:00,
2013-06-04 10:42:00,61.9,45.1,30.14,SSE,147,0.0,8.0,54,0.00,,---,0.00,VWS V14.01,2013-06-04 14:42:00,
2013-06-04 10:47:00,62.6,44.8,30.15,NW,323,2.0,8.0,52,0.00,,---,0.00,VWS V14.01,2013-06-04 14:47:00,
2013-06-04 10:50:00,62.7,45.3,30.15,NNW,344,1.0,8.0,53,0.00,,---,0.00,VWS V14.01,2013-06-04 14:50:00,
2013-06-04 10:52:00,62.9,46.0,30.14,SE,134,1.0,4.0,54,0.00,,---,0.00,VWS V14.01,2013-06-04 14:52:00,
2013-06-04 10:57:00,63.1,47.2,30.14,ESE,115,0.0,10.0,56,0.00,,---,0.00,VWS V14.01,2013-06-04 14:57:00,
2013-06-04 11:00:00,63.3,46.4,30.14,NE,43,3.0,10.0,54,0.00,,---,0.00,VWS V14.01,2013-06-04 15:00:00,
2013-06-04 11:02:00,63.3,45.4,30.14,NW,309,0.0,4.0,52,0.00,,---,0.00,VWS V14.01,2013-06-04 15:02:00,
2013-06-04 11:07:00,63.1,45.2,30.14,ESE,107,0.0,4.0,52,0.00,,---,0.00,VWS V14.01,2013-06-04 15:07:00,
2013-06-04 11:10:00,63.1,45.7,30.14,SE,134,1.0,4.0,53,0.00,,---,0.00,VWS V14.01,2013-06-04 15:10:00,
2013-06-04 11:12:00,63.8,47.8,30.14,ESE,113,0.0,3.0,56,0.00,,---,0.00,VWS V14.01,2013-06-04 15:12:00,
2013-06-04 11:17:00,63.9,45.4,30.14,NE,50,1.0,7.0,51,0.00,,---,0.00,VWS V14.01,2013-06-04 15:17:00,
2013-06-04 11:20:00,63.9,46.0,30.14,NNE,20,3.0,7.0,52,0.00,,---,0.00,VWS V14.01,2013-06-04 15:20:00,
2013-06-04 11:22:00,63.7,45.8,30.14,NW,306,4.0,5.0,52,0.00,,---,0.00,VWS V14.01,2013-06-04 15:22:00,
2013-06-04 11:27:00,63.8,45.9,30.14,NNW,344,1.0,7.0,52,0.00,,---,0.00,VWS V14.01,2013-06-04 15:27:00,
2013-06-04 11:30:00,63.9,46.0,30.14,ENE,61,0.0,7.0,52,0.00,,---,0.00,VWS V14.01,2013-06-04 15:30:00,
2013-06-04 11:32:00,64.2,47.2,30.13,ENE,69,0.0,5.0,54,0.00,,---,0.00,VWS V14.01,2013-06-04 15:32:00,
2013-06-04 11:37:00,64.9,47.9,30.13,ENE,58,1.0,6.0,54,0.00,,---,0.00,VWS V14.01,2013-06-04 15:37:00,
2013-06-04 11:40:00,65.2,46.1,30.13,NE,34,1.0,6.0,50,0.00,,---,0.00,VWS V14.01,2013-06-04 15:40:00,
2013-06-04 11:42:00,65.4,46.8,30.13,North,5,4.0,5.0,51,0.00,,---,0.00,VWS V14.01,2013-06-04 15:42:00,
2013-06-04 11:47:00,65.2,46.1,30.13,NE,50,0.0,5.0,50,0.00,,---,0.00,VWS V14.01,2013-06-04 15:47:00,
2013-06-04 11:50:00,65.1,47.6,30.13,NNE,19,3.0,6.0,53,0.00,,---,0.00,VWS V14.01,2013-06-04 15:50:00,
2013-06-04 11:52:00,65.2,46.1,30.13,NNE,29,2.0,5.0,50,0.00,,---,0.00,VWS V14.01,2013-06-04 15:52:00,
2013-06-04 11:57:00,64.9,45.8,30.13,North,350,5.0,8.0,50,0.00,,---,0.00,VWS V14.01,2013-06-04 15:57:00,
2013-06-04 12:00:00,64.6,45.6,30.13,NNW,333,0.0,8.0,50,0.00,,---,0.00,VWS V14.01,2013-06-04 16:00:00,
2013-06-04 12:02:00,64.7,45.7,30.13,NW,306,0.0,8.0,50,0.00,,---,0.00,VWS V14.01,2013-06-04 16:02:00,
2013-06-04 12:07:00,65.0,45.9,30.12,NNW,331,4.0,8.0,50,0.00,,---,0.00,VWS V14.01,2013-06-04 16:07:00,
2013-06-04 12:10:00,64.9,46.4,30.12,NNE,15,2.0,8.0,51,0.00,,---,0.00,VWS V14.01,2013-06-04 16:10:00,
2013-06-04 12:12:00,65.0,45.4,30.12,WNW,299,0.0,3.0,49,0.00,,---,0.00,VWS V14.01,2013-06-04 16:12:00,
2013-06-04 12:17:00,65.4,46.8,30.12,NNW,348,0.0,4.0,51,0.00,,---,0.00,VWS V14.01,2013-06-04 16:17:00,
2013-06-04 12:20:00,65.6,46.5,30.12,NE,42,0.0,4.0,50,0.00,,---,0.00,VWS V14.01,2013-06-04 16:20:00,
2013-06-04 12:22:00,65.9,46.2,30.12,NE,35,3.0,5.0,49,0.00,,---,0.00,VWS V14.01,2013-06-04 16:22:00,
2013-06-04 12:27:00,65.2,45.0,30.12,NNW,337,2.0,6.0,48,0.00,,---,0.00,VWS V14.01,2013-06-04 16:27:00,
2013-06-04 12:30:00,65.1,46.0,30.12,NNE,32,0.0,6.0,50,0.00,,---,0.00,VWS V14.01,2013-06-04 16:30:00,
2013-06-04 12:32:00,65.1,45.5,30.12,NNW,328,1.0,6.0,49,0.00,,---,0.00,VWS V14.01,2013-06-04 16:32:00,
2013-06-04 12:37:00,65.7,47.1,30.11,North,351,0.0,6.0,51,0.00,,---,0.00,VWS V14.01,2013-06-04 16:37:00,
2013-06-04 12:40:00,65.9,47.3,30.11,West,279,0.0,6.0,51,0.00,,---,0.00,VWS V14.01,2013-06-04 16:40:00,
2013-06-04 12:42:00,66.2,47.0,30.11,NNW,342,0.0,6.0,50,0.00,,---,0.00,VWS V14.01,2013-06-04 16:42:00,
2013-06-04 12:47:00,66.5,47.8,30.11,NW,306,2.0,6.0,51,0.00,,---,0.00,VWS V14.01,2013-06-04 16:47:00,
2013-06-04 12:50:00,66.4,46.7,30.11,ENE,69,0.0,6.0,49,0.00,,---,0.00,VWS V14.01,2013-06-04 16:50:00,
2013-06-04 12:52:00,66.4,46.7,30.11,NNE,33,1.0,6.0,49,0.00,,---,0.00,VWS V14.01,2013-06-04 16:52:00,
2013-06-04 12:57:00,66.2,46.5,30.11,South,173,1.0,6.0,49,0.00,,---,0.00,VWS V14.01,2013-06-04 16:57:00,
2013-06-04 13:00:00,66.2,45.4,30.11,South,190,0.0,6.0,47,0.00,,---,0.00,VWS V14.01,2013-06-04 17:00:00,
2013-06-04 13:03:00,66.5,47.3,30.11,SE,133,0.0,5.0,50,0.00,,---,0.00,VWS V14.01,2013-06-04 17:03:00,
2013-06-04 13:08:00,67.0,48.3,30.11,NNE,17,1.0,5.0,51,0.00,,---,0.00,VWS V14.01,2013-06-04 17:08:00,
2013-06-04 13:10:00,67.1,46.2,30.11,NNE,31,1.0,5.0,47,0.00,,---,0.00,VWS V14.01,2013-06-04 17:10:00,
2013-06-04 13:13:00,67.5,47.7,30.11,SW,226,0.0,2.0,49,0.00,,---,0.00,VWS V14.01,2013-06-04 17:13:00,
2013-06-04 13:17:00,68.0,48.7,30.11,SE,125,1.0,5.0,50,0.00,,---,0.00,VWS V14.01,2013-06-04 17:17:00,
2013-06-04 13:20:00,68.1,46.0,30.11,SSE,164,0.0,5.0,45,0.00,,---,0.00,VWS V14.01,2013-06-04 17:20:00,
2013-06-04 13:22:00,68.2,45.5,30.11,NNE,15,2.0,6.0,44,0.00,,---,0.00,VWS V14.01,2013-06-04 17:22:00,
2013-06-04 13:27:00,67.6,44.9,30.12,NNE,27,1.0,6.0,44,0.00,,---,0.00,VWS V14.01,2013-06-04 17:27:00,
2013-06-04 13:30:00,67.4,46.5,30.12,NW,311,3.0,6.0,47,0.00,,---,0.00,VWS V14.01,2013-06-04 17:30:00,
2013-06-04 13:32:00,67.5,46.6,30.11,ESE,114,0.0,3.0,47,0.00,,---,0.00,VWS V14.01,2013-06-04 17:32:00,
2013-06-04 13:37:00,67.9,45.8,30.11,SSW,206,0.0,4.0,45,0.00,,---,0.00,VWS V14.01,2013-06-04 17:37:00,
2013-06-04 13:40:00,68.1,48.2,30.11,NNW,340,0.0,4.0,49,0.00,,---,0.00,VWS V14.01,2013-06-04 17:40:00,
2013-06-04 13:43:00,68.8,47.8,30.11,NNW,336,0.0,1.0,47,0.00,,---,0.00,VWS V14.01,2013-06-04 17:43:00,
2013-06-04 13:48:00,69.0,48.5,30.11,NE,38,2.0,7.0,48,0.00,,---,0.00,VWS V14.01,2013-06-04 17:48:00,
2013-06-04 13:50:00,69.0,46.8,30.11,NNE,17,1.0,7.0,45,0.00,,---,0.00,VWS V14.01,2013-06-04 17:50:00,
2013-06-04 13:53:00,68.5,47.5,30.11,NE,50,1.0,5.0,47,0.00,,---,0.00,VWS V14.01,2013-06-04 17:53:00,
2013-06-04 13:58:00,68.0,48.2,30.11,NE,53,1.0,5.0,49,0.00,,---,0.00,VWS V14.01,2013-06-04 17:58:00,
2013-06-04 14:00:00,68.3,49.5,30.11,WNW,294,4.0,5.0,51,0.00,,---,0.00,VWS V14.01,2013-06-04 18:00:00,
2013-06-04 14:03:00,68.7,47.7,30.11,NNE,13,0.0,6.0,47,0.00,,---,0.00,VWS V14.01,2013-06-04 18:03:00,
2013-06-04 14:08:00,68.8,47.2,30.11,ESE,121,1.0,6.0,46,0.00,,---,0.00,VWS V14.01,2013-06-04 18:08:00,
2013-06-04 14:10:00,68.9,47.9,30.11,NNE,12,1.0,6.0,47,0.00,,---,0.00,VWS V14.01,2013-06-04 18:10:00,
2013-06-04 14:13:00,69.1,47.5,30.11,WNW,300,3.0,5.0,46,0.00,,---,0.00,VWS V14.01,2013-06-04 18:13:00,
2013-06-04 14:18:00,68.5,46.9,30.11,NW,326,0.0,5.0,46,0.00,,---,0.00,VWS V14.01,2013-06-04 18:18:00,
2013-06-04 14:20:00,68.4,46.8,30.10,South,175,0.0,5.0,46,0.00,,---,0.00,VWS V14.01,2013-06-04 18:20:00,
2013-06-04 14:23:00,68.8,47.8,30.10,North,350,1.0,3.0,47,0.00,,---,0.00,VWS V14.01,2013-06-04 18:23:00,
2013-06-04 14:28:00,69.6,50.2,30.11,WNW,288,0.0,3.0,50,0.00,,---,0.00,VWS V14.01,2013-06-04 18:28:00,
2013-06-04 14:30:00,69.8,48.7,30.11,NNE,17,0.0,3.0,47,0.00,,---,0.00,VWS V14.01,2013-06-04 18:30:00,
2013-06-04 14:33:00,69.8,46.9,30.11,WNW,283,0.0,5.0,44,0.00,,---,0.00,VWS V14.01,2013-06-04 18:33:00,
2013-06-04 14:38:00,69.4,46.6,30.10,SW,226,0.0,5.0,44,0.00,,---,0.00,VWS V14.01,2013-06-04 18:38:00,
2013-06-04 14:40:00,69.4,46.6,30.10,SE,128,2.0,5.0,44,0.00,,---,0.00,VWS V14.01,2013-06-04 18:40:00,
2013-06-04 14:43:00,69.4,47.2,30.10,West,275,0.0,4.0,45,0.00,,---,0.00,VWS V14.01,2013-06-04 18:43:00,
2013-06-04 14:48:00,69.6,47.9,30.10,NE,51,0.0,6.0,46,0.00,,---,0.00,VWS V14.01,2013-06-04 18:48:00,
2013-06-04 14:50:00,69.6,47.9,30.10,NE,35,1.0,6.0,46,0.00,,---,0.00,VWS V14.01,2013-06-04 18:50:00,
2013-06-04 14:53:00,70.1,47.2,30.10,West,265,1.0,4.0,44,0.00,,---,0.00,VWS V14.01,2013-06-04 18:53:00,
2013-06-04 14:58:00,70.6,47.0,30.10,NNW,328,4.0,7.0,43,0.00,,---,0.00,VWS V14.01,2013-06-04 18:58:00,
2013-06-04 15:00:00,70.5,46.3,30.10,WNW,288,6.0,9.0,42,0.00,,---,0.00,VWS V14.01,2013-06-04 19:00:00,
2013-06-04 15:03:00,70.1,48.4,30.11,NE,44,3.0,7.0,46,0.00,,---,0.00,VWS V14.01,2013-06-04 19:03:00,
2013-06-04 15:08:00,69.8,46.3,30.10,SSW,195,1.0,7.0,43,0.00,,---,0.00,VWS V14.01,2013-06-04 19:08:00,
2013-06-04 15:10:00,69.9,46.4,30.10,NW,307,1.0,7.0,43,0.00,,---,0.00,VWS V14.01,2013-06-04 19:10:00,
2013-06-04 15:13:00,70.4,49.8,30.10,SW,236,0.0,2.0,48,0.00,,---,0.00,VWS V14.01,2013-06-04 19:13:00,
2013-06-04 15:18:00,70.9,47.3,30.10,SSW,194,0.0,3.0,43,0.00,,---,0.00,VWS V14.01,2013-06-04 19:18:00,
2013-06-04 15:20:00,70.9,47.3,30.10,NNE,30,2.0,3.0,43,0.00,,---,0.00,VWS V14.01,2013-06-04 19:20:00,
2013-06-04 15:23:00,70.6,47.7,30.09,ESE,109,1.0,4.0,44,0.00,,---,0.00,VWS V14.01,2013-06-04 19:23:00,
2013-06-04 15:28:00,70.2,46.7,30.09,SSW,194,1.0,6.0,43,0.00,,---,0.00,VWS V14.01,2013-06-04 19:28:00,
2013-06-04 15:30:00,70.2,46.1,30.09,SSE,159,0.0,6.0,42,0.00,,---,0.00,VWS V14.01,2013-06-04 19:30:00,
2013-06-04 15:33:00,70.6,47.0,30.09,ESE,107,0.0,3.0,43,0.00,,---,0.00,VWS V14.01,2013-06-04 19:33:00,
2013-06-04 15:38:00,70.7,47.7,30.09,ENE,59,0.0,6.0,44,0.00,,---,0.00,VWS V14.01,2013-06-04 19:38:00,
2013-06-04 15:40:00,70.7,48.9,30.09,NNW,344,0.0,6.0,46,0.00,,---,0.00,VWS V14.01,2013-06-04 19:40:00,
2013-06-04 15:43:00,70.8,46.6,30.09,North,360,3.0,4.0,42,0.00,,---,0.00,VWS V14.01,2013-06-04 19:43:00,
2013-06-04 15:48:00,70.8,48.4,30.09,NNE,32,2.0,6.0,45,0.00,,---,0.00,VWS V14.01,2013-06-04 19:48:00,
2013-06-04 15:50:00,70.8,48.4,30.09,NE,49,0.0,6.0,45,0.00,,---,0.00,VWS V14.01,2013-06-04 19:50:00,
2013-06-04 15:53:00,70.7,47.1,30.09,North,11,4.0,5.0,43,0.00,,---,0.00,VWS V14.01,2013-06-04 19:53:00,
2013-06-04 15:58:00,70.2,45.4,30.09,West,260,0.0,5.0,41,0.00,,---,0.00,VWS V14.01,2013-06-04 19:58:00,
2013-06-04 16:00:00,70.2,45.4,30.09,WSW,254,1.0,5.0,41,0.00,,---,0.00,VWS V14.01,2013-06-04 20:00:00,
2013-06-04 16:03:00,70.5,47.6,30.08,NNE,30,0.0,1.0,44,0.00,,---,0.00,VWS V14.01,2013-06-04 20:03:00,
2013-06-04 16:08:00,70.9,48.5,30.08,NNE,20,0.0,3.0,45,0.00,,---,0.00,VWS V14.01,2013-06-04 20:08:00,
2013-06-04 16:10:00,70.9,47.3,30.08,NNE,19,0.0,3.0,43,0.00,,---,0.00,VWS V14.01,2013-06-04 20:10:00,
2013-06-04 16:13:00,71.2,48.8,30.08,ESE,107,0.0,3.0,45,0.00,,---,0.00,VWS V14.01,2013-06-04 20:13:00,
2013-06-04 16:18:00,71.9,49.4,30.08,WNW,303,0.0,3.0,45,0.00,,---,0.00,VWS V14.01,2013-06-04 20:18:00,
2013-06-04 16:20:00,71.9,49.4,30.08,NW,306,0.0,3.0,45,0.00,,---,0.00,VWS V14.01,2013-06-04 20:20:00,
2013-06-04 16:23:00,72.2,47.9,30.08,NNE,31,0.0,6.0,42,0.00,,---,0.00,VWS V14.01,2013-06-04 20:23:00,
2013-06-04 16:28:00,71.4,46.5,30.08,NNW,327,1.0,6.0,41,0.00,,---,0.00,VWS V14.01,2013-06-04 20:28:00,
2013-06-04 16:30:00,71.3,46.4,30.08,NW,326,1.0,6.0,41,0.00,,---,0.00,VWS V14.01,2013-06-04 20:30:00,
2013-06-04 16:33:00,71.1,48.7,30.08,ESE,116,0.0,3.0,45,0.00,,---,0.00,VWS V14.01,2013-06-04 20:33:00,
2013-06-04 16:38:00,71.9,48.2,30.08,NNE,16,2.0,4.0,43,0.00,,---,0.00,VWS V14.01,2013-06-04 20:38:00,
2013-06-04 16:40:00,71.9,48.2,30.08,NE,38,0.0,4.0,43,0.00,,---,0.00,VWS V14.01,2013-06-04 20:40:00,
2013-06-04 16:43:00,71.4,47.1,30.08,NNE,32,4.0,6.0,42,0.00,,---,0.00,VWS V14.01,2013-06-04 20:43:00,
2013-06-04 16:48:00,71.0,47.4,30.08,NE,43,0.0,6.0,43,0.00,,---,0.00,VWS V14.01,2013-06-04 20:48:00,
2013-06-04 16:50:00,71.0,47.4,30.08,NNE,13,1.0,6.0,43,0.00,,---,0.00,VWS V14.01,2013-06-04 20:50:00,
2013-06-04 16:54:00,71.1,46.9,30.07,NNW,331,3.0,10.0,42,0.00,,---,0.00,VWS V14.01,2013-06-04 20:54:00,
2013-06-04 16:59:00,70.8,47.2,30.08,NE,51,2.0,10.0,43,0.00,,---,0.00,VWS V14.01,2013-06-04 20:59:00,
2013-06-04 17:00:00,70.8,47.2,30.08,NNW,333,2.0,10.0,43,0.00,,---,0.00,VWS V14.01,2013-06-04 21:00:00,
2013-06-04 17:04:00,70.8,48.4,30.07,NNE,26,0.0,4.0,45,0.00,,---,0.00,VWS V14.01,2013-06-04 21:04:00,
2013-06-04 17:09:00,70.9,47.3,30.07,ESE,118,1.0,5.0,43,0.00,,---,0.00,VWS V14.01,2013-06-04 21:09:00,
2013-06-04 17:10:00,70.9,47.3,30.07,ESE,107,0.0,5.0,43,0.00,,---,0.00,VWS V14.01,2013-06-04 21:10:00,
2013-06-04 17:14:00,70.8,47.8,30.07,West,273,0.0,4.0,44,0.00,,---,0.00,VWS V14.01,2013-06-04 21:14:00,
2013-06-04 17:19:00,71.0,48.0,30.07,SE,127,1.0,4.0,44,0.00,,---,0.00,VWS V14.01,2013-06-04 21:19:00,
2013-06-04 17:20:00,71.0,48.0,30.07,SE,127,1.0,4.0,44,0.00,,---,0.00,VWS V14.01,2013-06-04 21:20:00,
2013-06-04 17:24:00,71.3,48.3,30.07,NNW,347,2.0,4.0,44,0.00,,---,0.00,VWS V14.01,2013-06-04 21:24:00,
2013-06-04 17:29:00,71.2,47.0,30.07,NNW,327,0.0,4.0,42,0.00,,---,0.00,VWS V14.01,2013-06-04 21:29:00,
2013-06-04 17:30:00,71.2,47.0,30.07,NNW,327,0.0,4.0,42,0.00,,---,0.00,VWS V14.01,2013-06-04 21:30:00,
2013-06-04 17:34:00,71.2,47.6,30.08,NNW,328,4.0,5.0,43,0.00,,---,0.00,VWS V14.01,2013-06-04 21:34:00,
2013-06-04 17:39:00,71.1,47.5,30.08,ENE,74,1.0,5.0,43,0.00,,---,0.00,VWS V14.01,2013-06-04 21:39:00,
2013-06-04 17:40:00,71.1,47.5,30.08,ENE,74,1.0,5.0,43,0.00,,---,0.00,VWS V14.01,2013-06-04 21:40:00,
2013-06-04 17:44:00,70.9,47.3,30.08,NE,39,0.0,3.0,43,0.00,,---,0.00,VWS V14.01,2013-06-04 21:44:00,
2013-06-04 17:49:00,70.9,47.3,30.08,West,273,0.0,4.0,43,0.00,,---,0.00,VWS V14.01,2013-06-04 21:49:00,
2013-06-04 17:50:00,70.9,47.3,30.08,West,273,0.0,4.0,43,0.00,,---,0.00,VWS V14.01,2013-06-04 21:50:00,
2013-06-04 17:54:00,71.0,47.4,30.08,NNE,28,1.0,4.0,43,0.00,,---,0.00,VWS V14.01,2013-06-04 21:54:00,
2013-06-04 17:59:00,71.0,47.4,30.08,NE,34,0.0,4.0,43,0.00,,---,0.00,VWS V14.01,2013-06-04 21:59:00,
2013-06-04 18:00:00,71.0,47.4,30.08,NE,34,0.0,4.0,43,0.00,,---,0.00,VWS V14.01,2013-06-04 22:00:00,
2013-06-04 18:04:00,71.4,49.0,30.08,NE,36,2.0,6.0,45,0.00,,---,0.00,VWS V14.01,2013-06-04 22:04:00,
2013-06-04 18:09:00,71.4,48.4,30.08,NE,34,3.0,3.0,44,0.00,,---,0.00,VWS V14.01,2013-06-04 22:09:00,
2013-06-04 18:10:00,71.4,48.4,30.08,NE,38,3.0,6.0,44,0.00,,---,0.00,VWS V14.01,2013-06-04 22:10:00,
2013-06-04 18:14:00,71.2,48.2,30.08,SW,215,0.0,7.0,44,0.00,,---,0.00,VWS V14.01,2013-06-04 22:14:00,
2013-06-04 18:19:00,71.5,49.1,30.08,NNW,337,5.0,5.0,45,0.00,,---,0.00,VWS V14.01,2013-06-04 22:19:00,
2013-06-04 18:20:00,71.5,49.1,30.08,NNW,337,4.0,7.0,45,0.00,,---,0.00,VWS V14.01,2013-06-04 22:20:00,
2013-06-04 18:24:00,71.0,48.0,30.08,NNW,333,0.0,6.0,44,0.00,,---,0.00,VWS V14.01,2013-06-04 22:24:00,
2013-06-04 18:29:00,70.9,47.9,30.08,NE,36,0.0,2.0,44,0.00,,---,0.00,VWS V14.01,2013-06-04 22:29:00,
2013-06-04 18:30:00,70.9,47.9,30.08,NNE,23,2.0,6.0,44,0.00,,---,0.00,VWS V14.01,2013-06-04 22:30:00,
2013-06-04 18:34:00,71.0,48.0,30.08,NNE,32,2.0,2.0,44,0.00,,---,0.00,VWS V14.01,2013-06-04 22:34:00,
2013-06-04 18:39:00,71.2,48.8,30.08,ENE,76,2.0,4.0,45,0.00,,---,0.00,VWS V14.01,2013-06-04 22:39:00,
2013-06-04 18:40:00,71.2,48.8,30.08,NE,44,2.0,3.0,45,0.00,,---,0.00,VWS V14.01,2013-06-04 22:40:00,
2013-06-04 18:44:00,70.5,47.6,30.08,NNW,333,3.0,6.0,44,0.00,,---,0.00,VWS V14.01,2013-06-04 22:44:00,
2013-06-04 18:49:00,70.1,47.8,30.08,East,80,0.0,1.0,45,0.00,,---,0.00,VWS V14.01,2013-06-04 22:49:00,
2013-06-04 18:50:00,70.1,47.8,30.08,NNE,32,0.0,6.0,45,0.00,,---,0.00,VWS V14.01,2013-06-04 22:50:00,
2013-06-04 18:54:00,69.8,47.5,30.08,NNE,16,3.0,4.0,45,0.00,,---,0.00,VWS V14.01,2013-06-04 22:54:00,
2013-06-04 18:59:00,69.6,47.3,30.08,NE,53,0.0,0.0,45,0.00,,---,0.00,VWS V14.01,2013-06-04 22:59:00,
2013-06-04 19:00:00,69.6,47.3,30.08,NE,53,0.0,4.0,45,0.00,,---,0.00,VWS V14.01,2013-06-04 23:00:00,
2013-06-04 19:04:00,69.4,47.7,30.09,NNW,344,0.0,3.0,46,0.00,,---,0.00,VWS V14.01,2013-06-04 23:04:00,
2013-06-04 19:09:00,69.3,48.2,30.08,NNW,340,0.0,3.0,47,0.00,,---,0.00,VWS V14.01,2013-06-04 23:09:00,
2013-06-04 19:10:00,69.3,48.2,30.08,NNE,12,2.0,3.0,47,0.00,,---,0.00,VWS V14.01,2013-06-04 23:10:00,
2013-06-04 19:14:00,69.1,48.0,30.09,North,349,0.0,3.0,47,0.00,,---,0.00,VWS V14.01,2013-06-04 23:14:00,
2013-06-04 19:19:00,69.0,48.0,30.09,NNW,340,0.0,1.0,47,0.00,,---,0.00,VWS V14.01,2013-06-04 23:19:00,
2013-06-04 19:20:00,69.0,48.5,30.09,NNW,346,1.0,3.0,48,0.00,,---,0.00,VWS V14.01,2013-06-04 23:20:00,
2013-06-04 19:24:00,68.9,47.9,30.09,NNW,344,0.0,2.0,47,0.00,,---,0.00,VWS V14.01,2013-06-04 23:24:00,
2013-06-04 19:29:00,68.9,47.9,30.09,NNE,15,0.0,0.0,47,0.00,,---,0.00,VWS V14.01,2013-06-04 23:29:00,
2013-06-04 19:30:00,68.9,47.9,30.09,NNW,347,0.0,2.0,47,0.00,,---,0.00,VWS V14.01,2013-06-04 23:30:00,
2013-06-04 19:34:00,69.0,47.4,30.09,NNE,13,0.0,0.0,46,0.00,,---,0.00,VWS V14.01,2013-06-04 23:34:00,
2013-06-04 19:39:00,69.2,47.6,30.09,NNW,347,0.0,0.0,46,0.00,,---,0.00,VWS V14.01,2013-06-04 23:39:00,
2013-06-04 19:40:00,69.2,47.6,30.09,NNW,347,0.0,0.0,46,0.00,,---,0.00,VWS V14.01,2013-06-04 23:40:00,
2013-06-04 19:44:00,69.2,48.1,30.09,NNW,348,0.0,0.0,47,0.00,,---,0.00,VWS V14.01,2013-06-04 23:44:00,
2013-06-04 19:49:00,69.1,48.6,30.09,WNW,292,0.0,0.0,48,0.00,,---,0.00,VWS V14.01,2013-06-04 23:49:00,
2013-06-04 19:50:00,69.1,47.5,30.09,WNW,292,0.0,0.0,46,0.00,,---,0.00,VWS V14.01,2013-06-04 23:50:00,
2013-06-04 19:54:00,68.8,48.9,30.09,WNW,295,0.0,0.0,49,0.00,,---,0.00,VWS V14.01,2013-06-04 23:54:00,
2013-06-04 19:59:00,68.5,48.6,30.09,WNW,294,0.0,0.0,49,0.00,,---,0.00,VWS V14.01,2013-06-04 23:59:00,
2013-06-04 20:00:00,68.5,48.1,30.09,WNW,295,0.0,0.0,48,0.00,,---,0.00,VWS V14.01,2013-06-05 00:00:00,
2013-06-04 20:04:00,68.1,48.2,30.09,WNW,294,0.0,0.0,49,0.00,,---,0.00,VWS V14.01,2013-06-05 00:04:00,
2013-06-04 20:09:00,67.7,47.9,30.09,WNW,295,0.0,0.0,49,0.00,,---,0.00,VWS V14.01,2013-06-05 00:09:00,
2013-06-04 20:10:00,67.8,48.0,30.09,WNW,295,0.0,0.0,49,0.00,,---,0.00,VWS V14.01,2013-06-05 00:10:00,
2013-06-04 20:14:00,67.3,48.6,30.09,WNW,295,0.0,0.0,51,0.00,,---,0.00,VWS V14.01,2013-06-05 00:14:00,
2013-06-04 20:19:00,66.9,49.2,30.09,WNW,295,0.0,0.0,53,0.00,,---,0.00,VWS V14.01,2013-06-05 00:19:00,
2013-06-04 20:20:00,67.0,49.3,30.09,WNW,295,0.0,0.0,53,0.00,,---,0.00,VWS V14.01,2013-06-05 00:20:00,
2013-06-04 20:24:00,66.3,48.7,30.09,WNW,294,0.0,0.0,53,0.00,,---,0.00,VWS V14.01,2013-06-05 00:24:00,
2013-06-04 20:29:00,65.8,47.7,30.09,WNW,295,0.0,0.0,52,0.00,,---,0.00,VWS V14.01,2013-06-05 00:29:00,
2013-06-04 20:30:00,65.8,47.7,30.09,WNW,294,0.0,0.0,52,0.00,,---,0.00,VWS V14.01,2013-06-05 00:30:00,
2013-06-04 20:34:00,65.8,48.2,30.09,WNW,294,0.0,0.0,53,0.00,,---,0.00,VWS V14.01,2013-06-05 00:34:00,
2013-06-04 20:40:00,65.4,48.3,30.09,WNW,295,0.0,0.0,54,0.00,,---,0.00,VWS V14.01,2013-06-05 00:40:00,
2013-06-04 20:45:00,64.8,51.0,30.09,WNW,295,0.0,0.0,61,0.00,,---,0.00,VWS V14.01,2013-06-05 00:45:00,
2013-06-04 20:50:00,63.9,50.2,30.09,WNW,294,0.0,0.0,61,0.00,,---,0.00,VWS V14.01,2013-06-05 00:50:00,
2013-06-04 20:55:00,63.2,50.8,30.09,WNW,295,0.0,0.0,64,0.00,,---,0.00,VWS V14.01,2013-06-05 00:55:00,
2013-06-04 21:00:00,62.8,50.5,30.09,WNW,295,0.0,0.0,64,0.00,,---,0.00,VWS V14.01,2013-06-05 01:00:00,
2013-06-04 21:05:00,62.4,50.9,30.09,WNW,295,0.0,0.0,66,0.00,,---,0.00,VWS V14.01,2013-06-05 01:05:00,
2013-06-04 21:10:00,61.9,51.2,30.09,WNW,294,0.0,0.0,68,0.00,,---,0.00,VWS V14.01,2013-06-05 01:10:00,
2013-06-04 21:15:00,61.3,51.1,30.09,WNW,294,0.0,0.0,69,0.00,,---,0.00,VWS V14.01,2013-06-05 01:15:00,
2013-06-04 21:20:00,61.1,52.0,30.10,WNW,294,0.0,0.0,72,0.00,,---,0.00,VWS V14.01,2013-06-05 01:20:00,
2013-06-04 21:25:00,60.8,51.7,30.10,WNW,295,0.0,0.0,72,0.00,,---,0.00,VWS V14.01,2013-06-05 01:25:00,
2013-06-04 21:30:00,60.3,51.6,30.09,NNW,329,0.0,0.0,73,0.00,,---,0.00,VWS V14.01,2013-06-05 01:30:00,
2013-06-04 21:35:00,60.3,51.6,30.09,NNW,344,0.0,0.0,73,0.00,,---,0.00,VWS V14.01,2013-06-05 01:35:00,
2013-06-04 21:40:00,60.1,51.8,30.09,NNW,344,0.0,0.0,74,0.00,,---,0.00,VWS V14.01,2013-06-05 01:40:00,
2013-06-04 21:45:00,59.5,51.6,30.10,NNW,344,0.0,0.0,75,0.00,,---,0.00,VWS V14.01,2013-06-05 01:45:00,
2013-06-04 21:50:00,58.9,51.4,30.10,NNW,344,0.0,0.0,76,0.00,,---,0.00,VWS V14.01,2013-06-05 01:50:00,
2013-06-04 21:55:00,58.4,51.6,30.10,South,169,0.0,0.0,78,0.00,,---,0.00,VWS V14.01,2013-06-05 01:55:00,
2013-06-04 22:00:00,58.0,51.2,30.10,West,267,0.0,0.0,78,0.00,,---,0.00,VWS V14.01,2013-06-05 02:00:00,
2013-06-04 22:05:00,57.9,51.1,30.10,SW,215,0.0,0.0,78,0.00,,---,0.00,VWS V14.01,2013-06-05 02:05:00,
2013-06-04 22:10:00,57.7,50.5,30.10,SW,215,0.0,0.0,77,0.00,,---,0.00,VWS V14.01,2013-06-05 02:10:00,
2013-06-04 22:15:00,57.5,50.7,30.10,SW,215,0.0,0.0,78,0.00,,---,0.00,VWS V14.01,2013-06-05 02:15:00,
2013-06-04 22:20:00,57.2,50.4,30.10,SW,215,0.0,0.0,78,0.00,,---,0.00,VWS V14.01,2013-06-05 02:20:00,
2013-06-04 22:25:00,57.1,50.3,30.10,SW,215,0.0,0.0,78,0.00,,---,0.00,VWS V14.01,2013-06-05 02:25:00,
2013-06-04 22:30:00,56.7,50.6,30.10,SW,215,0.0,0.0,80,0.00,,---,0.00,VWS V14.01,2013-06-05 02:30:00,
2013-06-04 22:35:00,56.3,50.9,30.10,SW,215,0.0,0.0,82,0.00,,---,0.00,VWS V14.01,2013-06-05 02:35:00,
2013-06-04 22:40:00,55.9,50.5,30.10,SW,215,0.0,0.0,82,0.00,,---,0.00,VWS V14.01,2013-06-05 02:40:00,
2013-06-04 22:45:00,55.5,50.4,30.10,SW,215,0.0,0.0,83,0.00,,---,0.00,VWS V14.01,2013-06-05 02:45:00,
2013-06-04 22:50:00,55.1,50.4,30.10,SW,215,0.0,0.0,84,0.00,,---,0.00,VWS V14.01,2013-06-05 02:50:00,
2013-06-04 22:55:00,55.0,50.6,30.10,SW,217,0.0,0.0,85,0.00,,---,0.00,VWS V14.01,2013-06-05 02:55:00,
2013-06-04 23:00:00,54.8,50.4,30.10,SW,215,0.0,0.0,85,0.00,,---,0.00,VWS V14.01,2013-06-05 03:00:00,
2013-06-04 23:05:00,54.6,50.2,30.11,SW,217,0.0,0.0,85,0.00,,---,0.00,VWS V14.01,2013-06-05 03:05:00,
2013-06-04 23:10:00,54.4,50.3,30.11,SW,215,0.0,0.0,86,0.00,,---,0.00,VWS V14.01,2013-06-05 03:10:00,
2013-06-04 23:15:00,54.2,49.8,30.11,SW,217,0.0,0.0,85,0.00,,---,0.00,VWS V14.01,2013-06-05 03:15:00,
2013-06-04 23:20:00,53.8,49.7,30.11,SW,217,0.0,0.0,86,0.00,,---,0.00,VWS V14.01,2013-06-05 03:20:00,
2013-06-04 23:25:00,53.6,49.5,30.11,SW,217,0.0,0.0,86,0.00,,---,0.00,VWS V14.01,2013-06-05 03:25:00,
2013-06-04 23:30:00,53.5,50.0,30.11,SW,217,0.0,0.0,88,0.00,,---,0.00,VWS V14.01,2013-06-05 03:30:00,
2013-06-04 23:35:00,53.6,50.1,30.11,South,178,0.0,0.0,88,0.00,,---,0.00,VWS V14.01,2013-06-05 03:35:00,
2013-06-04 23:40:00,53.6,49.8,30.11,South,178,0.0,0.0,87,0.00,,---,0.00,VWS V14.01,2013-06-05 03:40:00,
2013-06-04 23:45:00,53.3,49.5,30.11,South,178,0.0,0.0,87,0.00,,---,0.00,VWS V14.01,2013-06-05 03:45:00,
2013-06-04 23:50:00,53.1,50.0,30.11,South,180,0.0,0.0,89,0.00,,---,0.00,VWS V14.01,2013-06-05 03:50:00,
2013-06-04 23:55:00,53.3,50.2,30.11,South,180,0.0,0.0,89,0.00,,---,0.00,VWS V14.01,2013-06-05 03:55:00,